sensor_id;sensor_type;location;lat;lon;timestamp;temperature;humidity
3086;DHT22;52812;48.960;9.108;2022-12-07T00:01:40;3.50;99.90
3086;DHT22;52812;48.960;9.108;2022-12-07T00:04:07;3.60;99.90
3086;DHT22;52812;48.960;9.108;2022-12-07T00:06:35;3.50;99.90
3086;DHT22;52812;48.960;9.108;2022-12-07T00:09:03;3.50;99.90
3086;DHT22;52812;48.960;9.108;2022-12-07T00:11:28;3.50;99.90
3086;DHT22;52812;48.960;9.108;2022-12-07T00:13:57;3.40;99.90
3086;DHT22;52812;48.960;9.108;2022-12-07T00:16:26;3.40;99.90
3086;DHT22;52812;48.960;9.108;2022-12-07T00:18:52;3.40;99.90
3086;DHT22;52812;48.960;9.108;2022-12-07T00:21:20;3.40;99.90
3086;DHT22;52812;48.960;9.108;2022-12-07T00:23:47;3.40;99.90
3086;DHT22;52812;48.960;9.108;2022-12-07T00:26:16;3.40;99.90
3086;DHT22;52812;48.960;9.108;2022-12-07T00:28:48;3.40;99.90
3086;DHT22;52812;48.960;9.108;2022-12-07T00:31:16;3.40;99.90
3086;DHT22;52812;48.960;9.108;2022-12-07T00:33:42;3.40;99.90
3086;DHT22;52812;48.960;9.108;2022-12-07T00:36:17;3.30;99.90
3086;DHT22;52812;48.960;9.108;2022-12-07T00:38:43;3.30;99.90
3086;DHT22;52812;48.960;9.108;2022-12-07T00:41:13;3.30;99.90
3086;DHT22;52812;48.960;9.108;2022-12-07T00:43:40;3.30;99.90
3086;DHT22;52812;48.960;9.108;2022-12-07T00:46:06;3.30;99.90
3086;DHT22;52812;48.960;9.108;2022-12-07T00:48:32;3.30;99.90
3086;DHT22;52812;48.960;9.108;2022-12-07T00:50:58;3.20;99.90
3086;DHT22;52812;48.960;9.108;2022-12-07T00:53:23;3.20;99.90
3086;DHT22;52812;48.960;9.108;2022-12-07T00:55:49;3.20;99.90
3086;DHT22;52812;48.960;9.108;2022-12-07T00:58:15;3.20;99.90
3086;DHT22;52812;48.960;9.108;2022-12-07T01:00:42;3.20;99.90
3086;DHT22;52812;48.960;9.108;2022-12-07T01:03:09;3.20;99.90
3086;DHT22;52812;48.960;9.108;2022-12-07T01:05:36;3.20;99.90
3086;DHT22;52812;48.960;9.108;2022-12-07T01:08:02;3.20;99.90
3086;DHT22;52812;48.960;9.108;2022-12-07T01:10:28;3.20;99.90
3086;DHT22;52812;48.960;9.108;2022-12-07T01:12:55;3.20;99.90
3086;DHT22;52812;48.960;9.108;2022-12-07T01:15:21;3.20;99.90
3086;DHT22;52812;48.960;9.108;2022-12-07T01:17:46;3.10;99.90
3086;DHT22;52812;48.960;9.108;2022-12-07T01:20:12;3.20;99.90
3086;DHT22;52812;48.960;9.108;2022-12-07T01:22:39;3.20;99.90
3086;DHT22;52812;48.960;9.108;2022-12-07T01:25:06;3.10;99.90
3086;DHT22;52812;48.960;9.108;2022-12-07T01:27:33;3.10;99.90
3086;DHT22;52812;48.960;9.108;2022-12-07T01:29:59;3.10;99.90
3086;DHT22;52812;48.960;9.108;2022-12-07T01:32:24;3.10;99.90
3086;DHT22;52812;48.960;9.108;2022-12-07T01:34:50;3.10;99.90
3086;DHT22;52812;48.960;9.108;2022-12-07T01:37:15;3.10;99.90
3086;DHT22;52812;48.960;9.108;2022-12-07T01:39:41;3.10;99.90
3086;DHT22;52812;48.960;9.108;2022-12-07T01:42:10;3.10;99.90
3086;DHT22;52812;48.960;9.108;2022-12-07T01:47:55;3.00;99.90
3086;DHT22;52812;48.960;9.108;2022-12-07T01:50:25;3.10;99.90
3086;DHT22;52812;48.960;9.108;2022-12-07T01:52:54;3.10;99.90
3086;DHT22;52812;48.960;9.108;2022-12-07T01:55:22;3.00;99.90
3086;DHT22;52812;48.960;9.108;2022-12-07T01:57:50;3.10;99.90
3086;DHT22;52812;48.960;9.108;2022-12-07T02:00:18;3.10;99.90
3086;DHT22;52812;48.960;9.108;2022-12-07T02:02:48;3.10;99.90
3086;DHT22;52812;48.960;9.108;2022-12-07T02:05:16;3.10;99.90
3086;DHT22;52812;48.960;9.108;2022-12-07T02:07:42;3.10;99.90
3086;DHT22;52812;48.960;9.108;2022-12-07T02:10:28;3.00;99.90
3086;DHT22;52812;48.960;9.108;2022-12-07T02:13:15;3.00;99.90
3086;DHT22;52812;48.960;9.108;2022-12-07T02:23:59;3.00;99.90
3086;DHT22;52812;48.960;9.108;2022-12-07T02:35:02;2.90;99.90
3086;DHT22;52812;48.960;9.108;2022-12-07T02:37:39;2.90;99.90
3086;DHT22;52812;48.960;9.108;2022-12-07T02:40:31;2.80;99.90
3086;DHT22;52812;48.960;9.108;2022-12-07T02:43:04;2.70;99.90
3086;DHT22;52812;48.960;9.108;2022-12-07T02:45:34;2.70;99.90
3086;DHT22;52812;48.960;9.108;2022-12-07T02:48:00;2.70;99.90
3086;DHT22;52812;48.960;9.108;2022-12-07T02:50:27;2.60;99.90
3086;DHT22;52812;48.960;9.108;2022-12-07T02:52:53;2.60;99.90
3086;DHT22;52812;48.960;9.108;2022-12-07T02:55:25;2.50;99.90
3086;DHT22;52812;48.960;9.108;2022-12-07T02:58:03;2.50;99.90
3086;DHT22;52812;48.960;9.108;2022-12-07T03:00:37;2.40;99.90
3086;DHT22;52812;48.960;9.108;2022-12-07T03:03:10;2.30;99.90
3086;DHT22;52812;48.960;9.108;2022-12-07T03:08:21;2.40;99.90
3086;DHT22;52812;48.960;9.108;2022-12-07T03:10:56;2.40;99.90
3086;DHT22;52812;48.960;9.108;2022-12-07T03:13:54;2.40;99.90
3086;DHT22;52812;48.960;9.108;2022-12-07T03:16:33;2.40;99.90
3086;DHT22;52812;48.960;9.108;2022-12-07T03:19:09;2.40;99.90
3086;DHT22;52812;48.960;9.108;2022-12-07T03:21:46;2.40;99.90
3086;DHT22;52812;48.960;9.108;2022-12-07T03:24:18;2.30;99.90
3086;DHT22;52812;48.960;9.108;2022-12-07T03:27:03;2.30;99.90
3086;DHT22;52812;48.960;9.108;2022-12-07T03:29:36;2.30;99.90
3086;DHT22;52812;48.960;9.108;2022-12-07T03:32:33;2.30;99.90
3086;DHT22;52812;48.960;9.108;2022-12-07T03:37:36;2.40;99.90
3086;DHT22;52812;48.960;9.108;2022-12-07T03:40:39;2.40;99.90
3086;DHT22;52812;48.960;9.108;2022-12-07T03:43:05;2.40;99.90
3086;DHT22;52812;48.960;9.108;2022-12-07T03:45:41;2.40;99.90
3086;DHT22;52812;48.960;9.108;2022-12-07T03:48:20;2.40;99.90
3086;DHT22;52812;48.960;9.108;2022-12-07T03:50:49;2.40;99.90
3086;DHT22;52812;48.960;9.108;2022-12-07T03:53:29;2.30;99.90
3086;DHT22;52812;48.960;9.108;2022-12-07T03:55:57;2.30;99.90
3086;DHT22;52812;48.960;9.108;2022-12-07T03:58:24;2.30;99.90
3086;DHT22;52812;48.960;9.108;2022-12-07T04:00:50;2.30;99.90
3086;DHT22;52812;48.960;9.108;2022-12-07T04:03:16;2.30;99.90
3086;DHT22;52812;48.960;9.108;2022-12-07T04:05:42;2.30;99.90
3086;DHT22;52812;48.960;9.108;2022-12-07T04:08:09;2.30;99.90
3086;DHT22;52812;48.960;9.108;2022-12-07T04:10:34;2.30;99.90
3086;DHT22;52812;48.960;9.108;2022-12-07T04:13:00;2.40;99.90
3086;DHT22;52812;48.960;9.108;2022-12-07T04:15:26;2.40;99.90
3086;DHT22;52812;48.960;9.108;2022-12-07T04:17:52;2.40;99.90
3086;DHT22;52812;48.960;9.108;2022-12-07T04:20:18;2.40;99.90
3086;DHT22;52812;48.960;9.108;2022-12-07T04:22:43;2.40;99.90
3086;DHT22;52812;48.960;9.108;2022-12-07T04:25:09;2.40;99.90
3086;DHT22;52812;48.960;9.108;2022-12-07T04:27:34;2.30;99.90
3086;DHT22;52812;48.960;9.108;2022-12-07T04:30:00;2.40;99.90
3086;DHT22;52812;48.960;9.108;2022-12-07T04:32:26;2.40;99.90
3086;DHT22;52812;48.960;9.108;2022-12-07T04:34:51;2.40;99.90
3086;DHT22;52812;48.960;9.108;2022-12-07T04:37:17;2.30;99.90
3086;DHT22;52812;48.960;9.108;2022-12-07T04:39:43;2.30;99.90
3086;DHT22;52812;48.960;9.108;2022-12-07T04:42:10;2.30;99.90
3086;DHT22;52812;48.960;9.108;2022-12-07T04:44:38;2.30;99.90
3086;DHT22;52812;48.960;9.108;2022-12-07T04:47:03;2.30;99.90
3086;DHT22;52812;48.960;9.108;2022-12-07T04:49:29;2.30;99.90
3086;DHT22;52812;48.960;9.108;2022-12-07T04:51:55;2.30;99.90
3086;DHT22;52812;48.960;9.108;2022-12-07T04:54:34;2.30;99.90
3086;DHT22;52812;48.960;9.108;2022-12-07T04:56:59;2.20;99.90
3086;DHT22;52812;48.960;9.108;2022-12-07T04:59:25;2.10;99.90
3086;DHT22;52812;48.960;9.108;2022-12-07T05:01:50;2.00;99.90
3086;DHT22;52812;48.960;9.108;2022-12-07T05:04:16;1.90;99.90
3086;DHT22;52812;48.960;9.108;2022-12-07T05:06:43;1.90;99.90
3086;DHT22;52812;48.960;9.108;2022-12-07T05:09:09;1.90;99.90
3086;DHT22;52812;48.960;9.108;2022-12-07T05:11:34;1.90;99.90
3086;DHT22;52812;48.960;9.108;2022-12-07T05:14:05;1.80;99.90
3086;DHT22;52812;48.960;9.108;2022-12-07T05:16:31;1.80;99.90
3086;DHT22;52812;48.960;9.108;2022-12-07T05:18:56;1.80;99.90
3086;DHT22;52812;48.960;9.108;2022-12-07T05:21:22;1.80;99.90
3086;DHT22;52812;48.960;9.108;2022-12-07T05:23:48;1.80;99.90
3086;DHT22;52812;48.960;9.108;2022-12-07T05:26:13;1.90;99.90
3086;DHT22;52812;48.960;9.108;2022-12-07T05:28:39;1.90;99.90
3086;DHT22;52812;48.960;9.108;2022-12-07T05:31:05;1.90;99.90
3086;DHT22;52812;48.960;9.108;2022-12-07T05:33:30;1.90;99.90
3086;DHT22;52812;48.960;9.108;2022-12-07T05:35:56;1.90;99.90
3086;DHT22;52812;48.960;9.108;2022-12-07T05:38:21;1.90;99.90
3086;DHT22;52812;48.960;9.108;2022-12-07T05:40:47;1.90;99.90
3086;DHT22;52812;48.960;9.108;2022-12-07T05:43:13;2.00;99.90
3086;DHT22;52812;48.960;9.108;2022-12-07T05:45:39;2.00;99.90
3086;DHT22;52812;48.960;9.108;2022-12-07T05:48:05;2.10;99.90
3086;DHT22;52812;48.960;9.108;2022-12-07T05:50:30;2.00;99.90
3086;DHT22;52812;48.960;9.108;2022-12-07T05:52:56;2.10;99.90
3086;DHT22;52812;48.960;9.108;2022-12-07T05:55:27;2.10;99.90
3086;DHT22;52812;48.960;9.108;2022-12-07T05:57:52;2.10;99.90
3086;DHT22;52812;48.960;9.108;2022-12-07T06:00:36;2.10;99.90
3086;DHT22;52812;48.960;9.108;2022-12-07T06:03:02;2.10;99.90
3086;DHT22;52812;48.960;9.108;2022-12-07T06:05:27;2.00;99.90
3086;DHT22;52812;48.960;9.108;2022-12-07T06:07:53;2.00;99.90
3086;DHT22;52812;48.960;9.108;2022-12-07T06:10:19;2.00;99.90
3086;DHT22;52812;48.960;9.108;2022-12-07T06:12:44;2.00;99.90
3086;DHT22;52812;48.960;9.108;2022-12-07T06:15:11;2.00;99.90
3086;DHT22;52812;48.960;9.108;2022-12-07T06:17:38;2.00;99.90
3086;DHT22;52812;48.960;9.108;2022-12-07T06:20:04;2.00;99.90
3086;DHT22;52812;48.960;9.108;2022-12-07T06:22:30;1.90;99.90
3086;DHT22;52812;48.960;9.108;2022-12-07T06:24:56;1.90;99.90
3086;DHT22;52812;48.960;9.108;2022-12-07T06:27:21;1.90;99.90
3086;DHT22;52812;48.960;9.108;2022-12-07T06:29:47;1.90;99.90
3086;DHT22;52812;48.960;9.108;2022-12-07T06:32:13;1.90;99.90
3086;DHT22;52812;48.960;9.108;2022-12-07T06:34:38;2.00;99.90
3086;DHT22;52812;48.960;9.108;2022-12-07T06:37:04;2.00;99.90
3086;DHT22;52812;48.960;9.108;2022-12-07T06:39:30;2.00;99.90
3086;DHT22;52812;48.960;9.108;2022-12-07T06:41:56;2.00;99.90
3086;DHT22;52812;48.960;9.108;2022-12-07T06:44:23;1.90;99.90
3086;DHT22;52812;48.960;9.108;2022-12-07T06:46:49;2.00;99.90
3086;DHT22;52812;48.960;9.108;2022-12-07T06:49:15;2.00;99.90
3086;DHT22;52812;48.960;9.108;2022-12-07T06:51:42;2.00;99.90
3086;DHT22;52812;48.960;9.108;2022-12-07T06:54:09;2.00;99.90
3086;DHT22;52812;48.960;9.108;2022-12-07T06:56:34;1.90;99.90
3086;DHT22;52812;48.960;9.108;2022-12-07T06:59:00;1.90;99.90
3086;DHT22;52812;48.960;9.108;2022-12-07T07:01:26;2.00;99.90
3086;DHT22;52812;48.960;9.108;2022-12-07T07:03:52;2.10;99.90
3086;DHT22;52812;48.960;9.108;2022-12-07T07:06:17;2.20;99.90
3086;DHT22;52812;48.960;9.108;2022-12-07T07:08:43;2.20;99.90
3086;DHT22;52812;48.960;9.108;2022-12-07T07:11:09;2.20;99.90
3086;DHT22;52812;48.960;9.108;2022-12-07T07:13:35;2.30;99.90
3086;DHT22;52812;48.960;9.108;2022-12-07T07:16:01;2.40;99.90
3086;DHT22;52812;48.960;9.108;2022-12-07T07:18:28;2.30;99.90
3086;DHT22;52812;48.960;9.108;2022-12-07T07:20:54;2.30;99.90
3086;DHT22;52812;48.960;9.108;2022-12-07T07:23:20;2.30;99.90
3086;DHT22;52812;48.960;9.108;2022-12-07T07:25:46;2.30;99.90
3086;DHT22;52812;48.960;9.108;2022-12-07T07:28:12;2.30;99.90
3086;DHT22;52812;48.960;9.108;2022-12-07T07:30:38;2.30;99.90
3086;DHT22;52812;48.960;9.108;2022-12-07T07:33:04;2.30;99.90
3086;DHT22;52812;48.960;9.108;2022-12-07T07:35:31;2.30;99.90
3086;DHT22;52812;48.960;9.108;2022-12-07T07:37:57;2.30;99.90
3086;DHT22;52812;48.960;9.108;2022-12-07T07:40:23;2.30;99.90
3086;DHT22;52812;48.960;9.108;2022-12-07T07:42:50;2.30;99.90
3086;DHT22;52812;48.960;9.108;2022-12-07T07:45:17;2.30;99.90
3086;DHT22;52812;48.960;9.108;2022-12-07T07:47:43;2.40;99.90
3086;DHT22;52812;48.960;9.108;2022-12-07T07:50:09;2.40;99.90
3086;DHT22;52812;48.960;9.108;2022-12-07T07:52:35;2.50;99.90
3086;DHT22;52812;48.960;9.108;2022-12-07T07:55:01;2.50;99.90
3086;DHT22;52812;48.960;9.108;2022-12-07T07:57:26;2.60;99.90
3086;DHT22;52812;48.960;9.108;2022-12-07T07:59:52;2.60;99.90
3086;DHT22;52812;48.960;9.108;2022-12-07T08:02:19;2.60;99.90
3086;DHT22;52812;48.960;9.108;2022-12-07T08:04:45;2.70;99.90
3086;DHT22;52812;48.960;9.108;2022-12-07T08:07:14;2.80;99.90
3086;DHT22;52812;48.960;9.108;2022-12-07T08:09:39;2.80;99.90
3086;DHT22;52812;48.960;9.108;2022-12-07T08:12:05;2.80;99.90
3086;DHT22;52812;48.960;9.108;2022-12-07T08:14:33;2.90;99.90
3086;DHT22;52812;48.960;9.108;2022-12-07T08:16:59;2.90;99.90
3086;DHT22;52812;48.960;9.108;2022-12-07T08:19:25;2.90;99.90
3086;DHT22;52812;48.960;9.108;2022-12-07T08:21:51;3.00;99.90
3086;DHT22;52812;48.960;9.108;2022-12-07T08:24:16;3.00;99.90
3086;DHT22;52812;48.960;9.108;2022-12-07T08:26:42;3.10;99.90
3086;DHT22;52812;48.960;9.108;2022-12-07T08:29:08;3.20;99.90
3086;DHT22;52812;48.960;9.108;2022-12-07T08:31:34;3.20;99.90
3086;DHT22;52812;48.960;9.108;2022-12-07T08:34:00;3.20;99.90
3086;DHT22;52812;48.960;9.108;2022-12-07T08:36:25;3.30;99.90
3086;DHT22;52812;48.960;9.108;2022-12-07T08:38:51;3.30;99.90
3086;DHT22;52812;48.960;9.108;2022-12-07T08:41:17;3.40;99.90
3086;DHT22;52812;48.960;9.108;2022-12-07T08:43:43;3.40;99.90
3086;DHT22;52812;48.960;9.108;2022-12-07T08:46:46;3.50;99.90
3086;DHT22;52812;48.960;9.108;2022-12-07T08:49:11;3.50;99.90
3086;DHT22;52812;48.960;9.108;2022-12-07T08:51:38;3.60;99.90
3086;DHT22;52812;48.960;9.108;2022-12-07T08:54:07;3.70;99.90
3086;DHT22;52812;48.960;9.108;2022-12-07T08:56:34;3.80;99.90
3086;DHT22;52812;48.960;9.108;2022-12-07T08:59:00;3.80;99.90
3086;DHT22;52812;48.960;9.108;2022-12-07T09:01:26;3.80;99.90
3086;DHT22;52812;48.960;9.108;2022-12-07T09:03:52;3.80;99.90
3086;DHT22;52812;48.960;9.108;2022-12-07T09:06:18;3.90;99.90
3086;DHT22;52812;48.960;9.108;2022-12-07T09:08:47;3.90;99.90
3086;DHT22;52812;48.960;9.108;2022-12-07T09:11:15;4.00;99.90
3086;DHT22;52812;48.960;9.108;2022-12-07T09:13:40;4.00;99.90
3086;DHT22;52812;48.960;9.108;2022-12-07T09:16:09;4.00;99.90
3086;DHT22;52812;48.960;9.108;2022-12-07T09:18:34;4.00;99.90
3086;DHT22;52812;48.960;9.108;2022-12-07T09:21:00;4.00;99.90
3086;DHT22;52812;48.960;9.108;2022-12-07T09:23:25;4.10;99.90
3086;DHT22;52812;48.960;9.108;2022-12-07T09:25:51;4.10;99.90
3086;DHT22;52812;48.960;9.108;2022-12-07T09:28:17;4.20;99.90
3086;DHT22;52812;48.960;9.108;2022-12-07T09:30:47;4.10;99.90
3086;DHT22;52812;48.960;9.108;2022-12-07T09:33:13;4.10;99.90
3086;DHT22;52812;48.960;9.108;2022-12-07T09:35:44;4.10;99.90
3086;DHT22;52812;48.960;9.108;2022-12-07T09:38:10;4.20;99.90
3086;DHT22;52812;48.960;9.108;2022-12-07T09:40:35;4.20;99.90
3086;DHT22;52812;48.960;9.108;2022-12-07T09:43:01;4.30;99.90
3086;DHT22;52812;48.960;9.108;2022-12-07T09:45:34;4.20;99.90
3086;DHT22;52812;48.960;9.108;2022-12-07T09:48:02;4.20;99.90
3086;DHT22;52812;48.960;9.108;2022-12-07T09:50:29;4.20;99.90
3086;DHT22;52812;48.960;9.108;2022-12-07T09:53:09;4.20;99.90
3086;DHT22;52812;48.960;9.108;2022-12-07T09:55:38;4.20;99.90
3086;DHT22;52812;48.960;9.108;2022-12-07T09:58:06;4.30;99.90
3086;DHT22;52812;48.960;9.108;2022-12-07T10:00:31;4.30;99.90
3086;DHT22;52812;48.960;9.108;2022-12-07T10:02:59;4.30;99.90
3086;DHT22;52812;48.960;9.108;2022-12-07T10:05:37;4.30;99.90
3086;DHT22;52812;48.960;9.108;2022-12-07T10:08:04;4.40;99.90
3086;DHT22;52812;48.960;9.108;2022-12-07T10:10:33;4.40;99.90
3086;DHT22;52812;48.960;9.108;2022-12-07T10:13:13;4.50;99.90
3086;DHT22;52812;48.960;9.108;2022-12-07T10:15:55;4.60;99.90
3086;DHT22;52812;48.960;9.108;2022-12-07T10:21:15;4.80;99.90
3086;DHT22;52812;48.960;9.108;2022-12-07T10:32:02;4.80;99.90
3086;DHT22;52812;48.960;9.108;2022-12-07T10:34:37;4.80;99.90
3086;DHT22;52812;48.960;9.108;2022-12-07T10:37:19;4.70;99.90
3086;DHT22;52812;48.960;9.108;2022-12-07T10:39:56;4.70;99.90
3086;DHT22;52812;48.960;9.108;2022-12-07T10:42:25;4.70;99.90
3086;DHT22;52812;48.960;9.108;2022-12-07T10:45:16;4.70;99.90
3086;DHT22;52812;48.960;9.108;2022-12-07T10:48:12;4.70;99.90
3086;DHT22;52812;48.960;9.108;2022-12-07T10:53:39;4.60;99.90
3086;DHT22;52812;48.960;9.108;2022-12-07T10:59:20;4.60;99.90
3086;DHT22;52812;48.960;9.108;2022-12-07T11:04:24;4.70;99.90
3086;DHT22;52812;48.960;9.108;2022-12-07T11:26:43;5.20;99.90
3086;DHT22;52812;48.960;9.108;2022-12-07T11:29:28;5.30;99.90
3086;DHT22;52812;48.960;9.108;2022-12-07T11:37:35;5.60;99.90
3086;DHT22;52812;48.960;9.108;2022-12-07T11:40:05;5.70;99.90
3086;DHT22;52812;48.960;9.108;2022-12-07T11:42:41;5.60;99.90
3086;DHT22;52812;48.960;9.108;2022-12-07T11:45:19;5.50;99.90
3086;DHT22;52812;48.960;9.108;2022-12-07T11:47:53;5.60;99.90
3086;DHT22;52812;48.960;9.108;2022-12-07T11:55:52;5.60;99.90
3086;DHT22;52812;48.960;9.108;2022-12-07T12:00:50;5.50;99.90
3086;DHT22;52812;48.960;9.108;2022-12-07T12:03:23;5.40;99.90
3086;DHT22;52812;48.960;9.108;2022-12-07T12:05:55;5.40;99.90
3086;DHT22;52812;48.960;9.108;2022-12-07T12:08:35;5.30;99.90
3086;DHT22;52812;48.960;9.108;2022-12-07T12:11:37;5.30;99.90
3086;DHT22;52812;48.960;9.108;2022-12-07T12:14:12;5.20;99.90
3086;DHT22;52812;48.960;9.108;2022-12-07T12:22:55;5.30;99.90
3086;DHT22;52812;48.960;9.108;2022-12-07T12:25:36;5.30;99.90
3086;DHT22;52812;48.960;9.108;2022-12-07T12:28:03;5.30;99.90
3086;DHT22;52812;48.960;9.108;2022-12-07T12:30:38;5.30;99.90
3086;DHT22;52812;48.960;9.108;2022-12-07T12:33:22;5.30;99.90
3086;DHT22;52812;48.960;9.108;2022-12-07T12:46:58;5.30;99.90
3086;DHT22;52812;48.960;9.108;2022-12-07T12:51:57;5.30;99.90
3086;DHT22;52812;48.960;9.108;2022-12-07T12:54:32;5.30;99.90
3086;DHT22;52812;48.960;9.108;2022-12-07T12:57:21;5.20;99.90
3086;DHT22;52812;48.960;9.108;2022-12-07T13:15:39;5.20;99.90
3086;DHT22;52812;48.960;9.108;2022-12-07T13:26:19;5.00;99.90
3086;DHT22;52812;48.960;9.108;2022-12-07T13:28:50;5.00;99.90
3086;DHT22;52812;48.960;9.108;2022-12-07T13:34:39;5.10;99.90
3086;DHT22;52812;48.960;9.108;2022-12-07T13:39:56;5.00;99.90
3086;DHT22;52812;48.960;9.108;2022-12-07T13:42:27;4.90;99.90
3086;DHT22;52812;48.960;9.108;2022-12-07T13:44:54;5.00;99.90
3086;DHT22;52812;48.960;9.108;2022-12-07T13:47:36;5.00;99.90
3086;DHT22;52812;48.960;9.108;2022-12-07T13:50:32;5.00;99.90
3086;DHT22;52812;48.960;9.108;2022-12-07T13:52:59;5.00;99.90
3086;DHT22;52812;48.960;9.108;2022-12-07T13:55:25;5.00;99.90
3086;DHT22;52812;48.960;9.108;2022-12-07T13:57:53;5.00;99.90
3086;DHT22;52812;48.960;9.108;2022-12-07T14:00:24;5.00;99.90
3086;DHT22;52812;48.960;9.108;2022-12-07T14:02:59;5.00;99.90
3086;DHT22;52812;48.960;9.108;2022-12-07T14:05:29;4.90;99.90
3086;DHT22;52812;48.960;9.108;2022-12-07T14:08:02;4.90;99.90
3086;DHT22;52812;48.960;9.108;2022-12-07T14:10:29;4.80;99.90
3086;DHT22;52812;48.960;9.108;2022-12-07T14:12:56;4.90;99.90
3086;DHT22;52812;48.960;9.108;2022-12-07T14:15:25;4.80;99.90
3086;DHT22;52812;48.960;9.108;2022-12-07T14:17:53;4.80;99.90
3086;DHT22;52812;48.960;9.108;2022-12-07T14:22:57;4.70;99.90
3086;DHT22;52812;48.960;9.108;2022-12-07T14:25:26;4.70;99.90
3086;DHT22;52812;48.960;9.108;2022-12-07T14:28:00;4.60;99.90
3086;DHT22;52812;48.960;9.108;2022-12-07T14:30:31;4.60;99.90
3086;DHT22;52812;48.960;9.108;2022-12-07T14:33:02;4.60;99.90
3086;DHT22;52812;48.960;9.108;2022-12-07T14:35:29;4.60;99.90
3086;DHT22;52812;48.960;9.108;2022-12-07T14:37:55;4.50;99.90
3086;DHT22;52812;48.960;9.108;2022-12-07T14:40:23;4.50;99.90
3086;DHT22;52812;48.960;9.108;2022-12-07T14:42:57;4.50;99.90
3086;DHT22;52812;48.960;9.108;2022-12-07T14:45:23;4.40;99.90
3086;DHT22;52812;48.960;9.108;2022-12-07T14:47:49;4.40;99.90
3086;DHT22;52812;48.960;9.108;2022-12-07T14:50:17;4.30;99.90
3086;DHT22;52812;48.960;9.108;2022-12-07T14:52:55;4.20;99.90
3086;DHT22;52812;48.960;9.108;2022-12-07T14:55:29;4.20;99.90
3086;DHT22;52812;48.960;9.108;2022-12-07T14:57:56;4.20;99.90
3086;DHT22;52812;48.960;9.108;2022-12-07T15:00:24;4.10;99.90
3086;DHT22;52812;48.960;9.108;2022-12-07T15:02:50;4.10;99.90
3086;DHT22;52812;48.960;9.108;2022-12-07T15:05:17;4.10;99.90
3086;DHT22;52812;48.960;9.108;2022-12-07T15:07:44;4.10;99.90
3086;DHT22;52812;48.960;9.108;2022-12-07T15:10:24;4.00;99.90
3086;DHT22;52812;48.960;9.108;2022-12-07T15:12:55;4.00;99.90
3086;DHT22;52812;48.960;9.108;2022-12-07T15:15:41;4.00;99.90
3086;DHT22;52812;48.960;9.108;2022-12-07T15:18:06;4.00;99.90
3086;DHT22;52812;48.960;9.108;2022-12-07T15:20:32;4.00;99.90
3086;DHT22;52812;48.960;9.108;2022-12-07T15:22:58;4.00;99.90
3086;DHT22;52812;48.960;9.108;2022-12-07T15:25:23;4.00;99.90
3086;DHT22;52812;48.960;9.108;2022-12-07T15:27:49;3.90;99.90
3086;DHT22;52812;48.960;9.108;2022-12-07T15:30:15;3.90;99.90
3086;DHT22;52812;48.960;9.108;2022-12-07T15:32:41;3.90;99.90
3086;DHT22;52812;48.960;9.108;2022-12-07T15:35:06;3.90;99.90
3086;DHT22;52812;48.960;9.108;2022-12-07T15:37:32;3.90;99.90
3086;DHT22;52812;48.960;9.108;2022-12-07T15:39:58;3.90;99.90
3086;DHT22;52812;48.960;9.108;2022-12-07T15:42:23;3.90;99.90
3086;DHT22;52812;48.960;9.108;2022-12-07T15:44:49;3.90;99.90
3086;DHT22;52812;48.960;9.108;2022-12-07T15:47:31;3.90;99.90
3086;DHT22;52812;48.960;9.108;2022-12-07T15:49:57;3.80;99.90
3086;DHT22;52812;48.960;9.108;2022-12-07T15:52:22;3.80;99.90
3086;DHT22;52812;48.960;9.108;2022-12-07T15:54:48;3.80;99.90
3086;DHT22;52812;48.960;9.108;2022-12-07T15:57:14;3.80;99.90
3086;DHT22;52812;48.960;9.108;2022-12-07T15:59:39;3.80;99.90
3086;DHT22;52812;48.960;9.108;2022-12-07T16:02:05;3.80;99.90
3086;DHT22;52812;48.960;9.108;2022-12-07T16:04:31;3.80;99.90
3086;DHT22;52812;48.960;9.108;2022-12-07T16:06:57;3.80;99.90
3086;DHT22;52812;48.960;9.108;2022-12-07T16:09:22;3.80;99.90
3086;DHT22;52812;48.960;9.108;2022-12-07T16:11:48;3.70;99.90
3086;DHT22;52812;48.960;9.108;2022-12-07T16:14:15;3.70;99.90
3086;DHT22;52812;48.960;9.108;2022-12-07T16:16:41;3.80;99.90
3086;DHT22;52812;48.960;9.108;2022-12-07T16:19:07;3.70;99.90
3086;DHT22;52812;48.960;9.108;2022-12-07T16:21:34;3.70;99.90
3086;DHT22;52812;48.960;9.108;2022-12-07T16:24:01;3.70;99.90
3086;DHT22;52812;48.960;9.108;2022-12-07T16:26:26;3.70;99.90
3086;DHT22;52812;48.960;9.108;2022-12-07T16:28:52;3.60;99.90
3086;DHT22;52812;48.960;9.108;2022-12-07T16:31:20;3.60;99.90
3086;DHT22;52812;48.960;9.108;2022-12-07T16:33:47;3.50;99.90
3086;DHT22;52812;48.960;9.108;2022-12-07T16:36:15;3.50;99.90
3086;DHT22;52812;48.960;9.108;2022-12-07T16:38:44;3.40;99.90
3086;DHT22;52812;48.960;9.108;2022-12-07T16:41:10;3.30;99.90
3086;DHT22;52812;48.960;9.108;2022-12-07T16:43:36;3.20;99.90
3086;DHT22;52812;48.960;9.108;2022-12-07T16:46:03;3.10;99.90
3086;DHT22;52812;48.960;9.108;2022-12-07T16:48:28;3.10;99.90
3086;DHT22;52812;48.960;9.108;2022-12-07T16:50:54;3.00;99.90
3086;DHT22;52812;48.960;9.108;2022-12-07T16:53:21;2.90;99.90
3086;DHT22;52812;48.960;9.108;2022-12-07T16:55:47;2.80;99.90
3086;DHT22;52812;48.960;9.108;2022-12-07T16:58:16;2.80;99.90
3086;DHT22;52812;48.960;9.108;2022-12-07T17:00:43;2.80;99.90
3086;DHT22;52812;48.960;9.108;2022-12-07T17:03:09;2.80;99.90
3086;DHT22;52812;48.960;9.108;2022-12-07T17:05:40;2.80;99.90
3086;DHT22;52812;48.960;9.108;2022-12-07T17:08:06;2.80;99.90
3086;DHT22;52812;48.960;9.108;2022-12-07T17:10:33;2.90;99.90
3086;DHT22;52812;48.960;9.108;2022-12-07T17:13:01;2.80;99.90
3086;DHT22;52812;48.960;9.108;2022-12-07T17:15:26;2.90;99.90
3086;DHT22;52812;48.960;9.108;2022-12-07T17:17:58;2.90;99.90
3086;DHT22;52812;48.960;9.108;2022-12-07T17:20:26;3.00;99.90
3086;DHT22;52812;48.960;9.108;2022-12-07T17:22:52;3.00;99.90
3086;DHT22;52812;48.960;9.108;2022-12-07T17:25:18;3.00;99.90
3086;DHT22;52812;48.960;9.108;2022-12-07T17:27:45;3.00;99.90
3086;DHT22;52812;48.960;9.108;2022-12-07T17:30:12;3.00;99.90
3086;DHT22;52812;48.960;9.108;2022-12-07T17:32:38;3.00;99.90
3086;DHT22;52812;48.960;9.108;2022-12-07T17:35:04;3.00;99.90
3086;DHT22;52812;48.960;9.108;2022-12-07T17:37:31;3.00;99.90
3086;DHT22;52812;48.960;9.108;2022-12-07T17:39:57;3.00;99.90
3086;DHT22;52812;48.960;9.108;2022-12-07T17:42:26;3.00;99.90
3086;DHT22;52812;48.960;9.108;2022-12-07T17:45:03;3.00;99.90
3086;DHT22;52812;48.960;9.108;2022-12-07T17:47:28;3.00;99.90
3086;DHT22;52812;48.960;9.108;2022-12-07T17:49:54;3.00;99.90
3086;DHT22;52812;48.960;9.108;2022-12-07T17:52:20;3.00;99.90
3086;DHT22;52812;48.960;9.108;2022-12-07T17:55:04;3.00;99.90
3086;DHT22;52812;48.960;9.108;2022-12-07T17:57:30;3.10;99.90
3086;DHT22;52812;48.960;9.108;2022-12-07T17:59:56;3.10;99.90
3086;DHT22;52812;48.960;9.108;2022-12-07T18:02:22;3.10;99.90
3086;DHT22;52812;48.960;9.108;2022-12-07T18:04:47;3.10;99.90
3086;DHT22;52812;48.960;9.108;2022-12-07T18:07:13;3.10;99.90
3086;DHT22;52812;48.960;9.108;2022-12-07T18:09:39;3.10;99.90
3086;DHT22;52812;48.960;9.108;2022-12-07T18:12:05;3.10;99.90
3086;DHT22;52812;48.960;9.108;2022-12-07T18:14:31;3.10;99.90
3086;DHT22;52812;48.960;9.108;2022-12-07T18:17:17;3.10;99.90
3086;DHT22;52812;48.960;9.108;2022-12-07T18:30:47;3.20;99.90
3086;DHT22;52812;48.960;9.108;2022-12-07T18:33:52;3.20;99.90
3086;DHT22;52812;48.960;9.108;2022-12-07T18:36:21;3.20;99.90